createdAt,value
2018-04-27T00:00:52.613Z,52.44
2018-04-27T00:01:51.197Z,52.54
2018-04-27T00:02:53.242Z,52.52
2018-04-27T00:03:51.060Z,52.49
2018-04-27T00:04:51.952Z,52.51
2018-04-27T00:05:50.871Z,52.45
2018-04-27T00:06:51.238Z,52.42
2018-04-27T00:07:51.728Z,52.51
2018-04-27T00:08:50.866Z,52.45
2018-04-27T00:09:51.308Z,52.42
2018-04-27T00:10:51.541Z,52.55
2018-04-27T00:11:53.440Z,52.43
2018-04-27T00:12:51.360Z,52.5
2018-04-27T00:13:50.878Z,52.57
2018-04-27T00:14:51.396Z,52.52
2018-04-27T00:15:50.799Z,52.41
2018-04-27T00:16:55.802Z,52.51
2018-04-27T00:17:50.672Z,52.49
2018-04-27T00:18:51.096Z,52.48
2018-04-27T00:20:01.485Z,52.5
2018-04-27T00:20:50.897Z,52.55
2018-04-27T00:21:50.810Z,52.49
2018-04-27T00:22:50.981Z,52.48
2018-04-27T00:23:51.243Z,52.46
2018-04-27T00:24:50.800Z,52.44
2018-04-27T00:25:51.261Z,52.55
2018-04-27T00:26:50.856Z,52.42
2018-04-27T00:27:50.829Z,52.43
2018-04-27T00:28:51.247Z,52.48
2018-04-27T00:29:51.027Z,52.45
2018-04-27T00:30:51.645Z,52.41
2018-04-27T00:31:58.560Z,52.45
2018-04-27T00:32:50.997Z,52.44
2018-04-27T00:33:50.694Z,52.46
2018-04-27T00:34:51.142Z,52.44
2018-04-27T00:35:51.553Z,52.47
2018-04-27T00:36:51.133Z,52.4
2018-04-27T00:37:51.374Z,52.5
2018-04-27T00:38:51.115Z,52.45
2018-04-27T00:39:50.665Z,52.46
2018-04-27T00:40:51.056Z,52.48
2018-04-27T00:41:52.177Z,52.5
2018-04-27T00:42:51.196Z,52.38
2018-04-27T00:43:50.920Z,52.5
2018-04-27T00:44:51.375Z,52.41
2018-04-27T00:45:50.880Z,52.43
2018-04-27T00:46:51.221Z,52.58
2018-04-27T00:47:50.837Z,52.5
2018-04-27T00:48:52.754Z,52.45
2018-04-27T00:49:50.958Z,52.44
2018-04-27T00:50:51.110Z,52.42
2018-04-27T00:51:50.692Z,52.44
2018-04-27T00:52:53.006Z,52.5
2018-04-27T00:53:50.967Z,52.44
2018-04-27T00:54:51.730Z,52.41
2018-04-27T00:55:52.019Z,52.5
2018-04-27T00:56:50.944Z,52.4
2018-04-27T00:57:50.943Z,52.42
2018-04-27T00:58:51.964Z,52.54
2018-04-27T00:59:52.191Z,52.49
2018-04-27T01:00:51.411Z,52.41
2018-04-27T01:01:51.456Z,52.48
2018-04-27T01:02:51.248Z,52.45
2018-04-27T01:03:51.553Z,52.54
2018-04-27T01:04:51.148Z,52.51
2018-04-27T01:05:51.105Z,52.44
2018-04-27T01:06:51.190Z,52.48
2018-04-27T01:07:51.414Z,52.51
2018-04-27T01:08:51.909Z,52.45
2018-04-27T01:09:51.180Z,52.36
2018-04-27T01:10:50.897Z,52.49
2018-04-27T01:11:51.155Z,52.42
2018-04-27T01:12:51.549Z,52.42
2018-04-27T01:13:51.207Z,52.46
2018-04-27T01:14:51.221Z,52.43
2018-04-27T01:15:51.495Z,52.46
2018-04-27T01:16:59.317Z,52.48
2018-04-27T01:23:17.800Z,52.38
2018-04-27T01:24:18.186Z,52.49
2018-04-27T01:25:17.085Z,52.43
2018-04-27T01:26:17.569Z,52.39
2018-04-27T01:27:17.402Z,52.52
2018-04-27T01:28:19.009Z,52.48
2018-04-27T01:29:24.695Z,52.36
2018-04-27T01:30:17.071Z,52.49
2018-04-27T01:31:17.137Z,52.45
2018-04-27T01:32:17.414Z,52.43
2018-04-27T01:33:17.293Z,52.43
2018-04-27T01:34:16.949Z,52.44
2018-04-27T01:35:17.307Z,52.38
2018-04-27T01:36:17.807Z,52.49
2018-04-27T01:37:16.863Z,52.37
2018-04-27T01:38:17.649Z,52.37
2018-04-27T01:39:16.983Z,52.5
2018-04-27T01:40:16.912Z,52.41
2018-04-27T01:41:17.009Z,52.4
2018-04-27T01:42:17.511Z,52.48
2018-04-27T01:43:17.161Z,52.48
2018-04-27T01:44:17.033Z,52.41
2018-04-27T01:45:24.907Z,52.43
2018-04-27T01:46:17.732Z,52.4
2018-04-27T01:47:16.959Z,52.4
2018-04-27T01:48:17.314Z,52.46
2018-04-27T01:49:17.192Z,52.37
2018-04-27T01:50:16.839Z,52.4
2018-04-27T01:51:16.733Z,52.43
2018-04-27T01:52:17.253Z,52.41
2018-04-27T01:53:17.273Z,52.37
2018-04-27T01:54:17.358Z,52.45
2018-04-27T01:55:17.075Z,52.38
2018-04-27T01:56:17.611Z,52.34
2018-04-27T01:57:18.750Z,52.41
2018-04-27T01:58:17.170Z,52.4
2018-04-27T01:59:16.959Z,52.37
2018-04-27T02:00:17.376Z,52.44
2018-04-27T02:01:16.988Z,52.36
2018-04-27T02:02:16.940Z,52.32
2018-04-27T02:03:17.197Z,52.43
2018-04-27T02:04:17.048Z,52.37
2018-04-27T02:05:18.944Z,52.33
2018-04-27T02:06:17.173Z,52.44
2018-04-27T02:07:16.766Z,52.41
2018-04-27T02:08:17.631Z,52.45
2018-04-27T02:09:19.902Z,52.48
2018-04-27T02:10:19.934Z,52.38
2018-04-27T02:11:16.860Z,52.41
2018-04-27T02:12:17.429Z,52.4
2018-04-27T02:13:17.961Z,52.39
2018-04-27T02:14:16.933Z,52.35
2018-04-27T02:15:17.377Z,52.37
2018-04-27T02:16:17.046Z,52.3
2018-04-27T02:22:49.436Z,52.32
2018-04-27T02:23:48.891Z,52.28
2018-04-27T02:24:48.142Z,52.33
2018-04-27T02:25:48.135Z,52.27
2018-04-27T02:26:49.295Z,52.32
2018-04-27T02:27:48.946Z,52.27
2018-04-27T02:28:48.801Z,52.3
2018-04-27T02:29:48.576Z,52.29
2018-04-27T02:30:49.133Z,52.32
2018-04-27T02:31:49.535Z,52.28
2018-04-27T02:32:48.601Z,52.33
2018-04-27T02:33:48.568Z,52.3
2018-04-27T02:34:48.269Z,52.32
2018-04-27T02:35:48.745Z,52.35
2018-04-27T02:36:48.582Z,52.3
2018-04-27T02:37:48.387Z,52.29
2018-04-27T02:38:48.088Z,52.35
2018-04-27T02:39:48.061Z,52.25
2018-04-27T02:40:47.962Z,52.27
2018-04-27T02:41:48.294Z,52.35
2018-04-27T02:42:48.053Z,52.31
2018-04-27T02:43:48.638Z,52.31
2018-04-27T02:44:48.526Z,52.34
2018-04-27T02:45:48.201Z,52.32
2018-04-27T02:46:48.747Z,52.25
2018-04-27T02:47:49.226Z,52.37
2018-04-27T02:48:48.218Z,52.37
2018-04-27T02:49:48.146Z,52.33
2018-04-27T02:50:48.656Z,52.35
2018-04-27T02:51:49.256Z,52.35
2018-04-27T02:52:48.262Z,52.3
2018-04-27T02:53:48.198Z,52.33
2018-04-27T02:54:48.890Z,52.38
2018-04-27T02:55:48.447Z,52.25
2018-04-27T02:56:48.203Z,52.34
2018-04-27T02:57:48.118Z,52.28
2018-04-27T02:58:49.491Z,52.33
2018-04-27T02:59:51.207Z,52.4
2018-04-27T03:00:48.329Z,52.32
2018-04-27T03:01:48.143Z,52.31
2018-04-27T03:02:48.009Z,52.37
2018-04-27T03:03:47.921Z,52.25
2018-04-27T03:04:48.100Z,52.29
2018-04-27T03:05:48.065Z,52.34
2018-04-27T03:06:49.943Z,52.33
2018-04-27T03:07:47.949Z,52.28
2018-04-27T03:08:48.008Z,52.36
2018-04-27T03:09:47.933Z,52.27
2018-04-27T03:10:48.026Z,52.22
2018-04-27T03:11:48.048Z,52.34
2018-04-27T03:12:48.234Z,52.33
2018-04-27T03:13:47.999Z,52.25
2018-04-27T03:14:47.918Z,52.34
2018-04-27T03:15:48.066Z,52.29
2018-04-27T03:16:48.109Z,52.3
2018-04-27T03:17:48.148Z,52.31
2018-04-27T03:18:48.055Z,52.29
2018-04-27T03:19:48.079Z,52.27
2018-04-27T03:20:48.064Z,52.32
2018-04-27T03:21:47.982Z,52.28
2018-04-27T03:22:48.035Z,52.25
2018-04-27T03:23:48.645Z,52.33
2018-04-27T03:24:48.055Z,52.31
2018-04-27T03:25:47.828Z,52.27
2018-04-27T03:26:48.048Z,52.31
2018-04-27T03:27:47.958Z,52.29
2018-04-27T03:28:48.085Z,52.27
2018-04-27T03:29:48.035Z,52.27
2018-04-27T03:30:48.015Z,52.27
2018-04-27T03:31:48.095Z,52.27
2018-04-27T03:32:48.101Z,52.32
2018-04-27T03:33:48.063Z,52.26
2018-04-27T03:34:48.046Z,52.22
2018-04-27T03:35:47.917Z,52.26
2018-04-27T03:36:48.116Z,52.22
2018-04-27T03:37:48.085Z,52.21
2018-04-27T03:38:47.994Z,52.29
2018-04-27T03:39:48.030Z,52.24
2018-04-27T03:40:48.029Z,52.22
2018-04-27T03:41:47.936Z,52.29
2018-04-27T03:42:47.933Z,52.26
2018-04-27T03:43:48.003Z,52.19
2018-04-27T03:44:47.953Z,52.31
2018-04-27T03:45:48.057Z,52.26
2018-04-27T03:46:48.006Z,52.18
2018-04-27T03:47:48.030Z,52.33
2018-04-27T03:48:47.976Z,52.18
2018-04-27T03:49:48.167Z,52.24
2018-04-27T03:50:47.854Z,52.32
2018-04-27T03:51:48.457Z,52.23
2018-04-27T03:52:47.973Z,52.27
2018-04-27T03:53:48.065Z,52.27
2018-04-27T03:54:47.961Z,52.22
2018-04-27T03:55:48.062Z,52.21
2018-04-27T03:56:47.966Z,52.27
2018-04-27T03:57:48.099Z,52.25
2018-04-27T03:58:47.937Z,52.23
2018-04-27T03:59:48.048Z,52.26
2018-04-27T04:00:48.069Z,52.17
2018-04-27T04:01:48.083Z,52.22
2018-04-27T04:02:48.079Z,52.25
2018-04-27T04:03:47.872Z,52.22
2018-04-27T04:04:48.305Z,52.18
2018-04-27T04:05:48.057Z,52.26
2018-04-27T04:06:48.153Z,52.2
2018-04-27T04:07:47.889Z,52.22
2018-04-27T04:08:47.964Z,52.21
2018-04-27T04:09:48.032Z,52.16
2018-04-27T04:10:48.098Z,52.15
2018-04-27T04:11:48.141Z,52.26
2018-04-27T04:12:48.069Z,52.15
2018-04-27T04:13:47.973Z,52.23
2018-04-27T04:14:47.967Z,52.19
2018-04-27T04:15:47.941Z,52.2
2018-04-27T04:16:48.132Z,52.21
2018-04-27T04:17:47.981Z,52.2
2018-04-27T04:18:47.923Z,52.14
2018-04-27T04:19:48.181Z,52.16
2018-04-27T04:20:48.057Z,52.23
2018-04-27T04:21:47.958Z,52.22
2018-04-27T04:22:47.859Z,52.14
2018-04-27T04:23:48.090Z,52.27
2018-04-27T04:24:47.978Z,52.21
2018-04-27T04:25:48.066Z,52.14
2018-04-27T04:26:48.291Z,52.25
2018-04-27T04:27:48.057Z,52.16
2018-04-27T04:28:48.223Z,52.16
2018-04-27T04:29:48.065Z,52.22
2018-04-27T04:30:47.943Z,52.15
2018-04-27T04:31:48.092Z,52.15
2018-04-27T04:32:47.903Z,52.21
2018-04-27T04:33:48.089Z,52.17
2018-04-27T04:34:48.078Z,52.14
2018-04-27T04:35:48.006Z,52.19
2018-04-27T04:36:48.097Z,52.16
2018-04-27T04:37:48.082Z,52.1
2018-04-27T04:38:48.130Z,52.24
2018-04-27T04:39:47.972Z,52.15
2018-04-27T04:40:48.151Z,52.15
2018-04-27T04:41:47.834Z,52.23
2018-04-27T04:42:48.158Z,52.23
2018-04-27T04:43:48.166Z,52.1
2018-04-27T04:44:48.044Z,52.23
2018-04-27T04:45:48.074Z,52.15
2018-04-27T04:46:48.059Z,52.13
2018-04-27T04:47:47.902Z,52.22
2018-04-27T04:48:48.069Z,52.18
2018-04-27T04:49:47.926Z,52.06
2018-04-27T04:50:48.051Z,52.12
2018-04-27T04:51:47.930Z,52.16
2018-04-27T04:52:48.040Z,52.14
2018-04-27T04:53:47.916Z,52.19
2018-04-27T04:54:47.970Z,52.15
2018-04-27T04:55:47.892Z,52.1
2018-04-27T04:56:47.861Z,52.22
2018-04-27T04:57:48.035Z,52.17
2018-04-27T04:58:47.877Z,52.19
2018-04-27T04:59:48.153Z,52.23
2018-04-27T05:00:47.927Z,52.17
2018-04-27T05:01:48.089Z,52.12
2018-04-27T05:02:48.680Z,52.22
2018-04-27T05:03:47.926Z,52.16
2018-04-27T05:04:47.980Z,52.19
2018-04-27T05:05:48.039Z,52.22
2018-04-27T05:06:48.061Z,52.12
2018-04-27T05:07:47.950Z,52.12
2018-04-27T05:08:48.292Z,52.18
2018-04-27T05:09:47.977Z,52.12
2018-04-27T05:10:48.473Z,52.1
2018-04-27T05:11:48.096Z,52.14
2018-04-27T05:12:48.007Z,52.15
2018-04-27T05:13:47.952Z,52.08
2018-04-27T05:14:48.323Z,52.16
2018-04-27T05:15:48.063Z,52.11
2018-04-27T05:16:48.112Z,52.06
2018-04-27T05:17:47.903Z,52.15
2018-04-27T05:18:48.098Z,52.11
2018-04-27T05:19:47.865Z,52.1
2018-04-27T05:20:48.167Z,52.22
2018-04-27T05:21:48.318Z,52.17
2018-04-27T05:22:47.937Z,52.12
2018-04-27T05:23:48.027Z,52.19
2018-04-27T05:24:48.111Z,52.15
2018-04-27T05:25:47.898Z,52.12
2018-04-27T05:26:48.175Z,52.17
2018-04-27T05:27:47.905Z,52.17
2018-04-27T05:28:48.040Z,52.17
2018-04-27T05:29:49.139Z,52.2
2018-04-27T05:30:48.089Z,52.14
2018-04-27T05:31:47.897Z,52.12
2018-04-27T05:32:48.152Z,52.18
2018-04-27T05:33:47.928Z,52.16
2018-04-27T05:34:47.945Z,52.12
2018-04-27T05:35:47.834Z,52.21
2018-04-27T05:36:48.338Z,52.14
2018-04-27T05:37:47.860Z,52.11
2018-04-27T05:38:47.937Z,52.18
2018-04-27T05:39:48.012Z,52.16
2018-04-27T05:40:47.951Z,52.1
2018-04-27T05:41:47.947Z,52.16
2018-04-27T05:42:48.110Z,52.19
2018-04-27T05:43:47.880Z,52.11
2018-04-27T05:44:47.992Z,52.19
2018-04-27T05:45:47.942Z,52.14
2018-04-27T05:46:48.011Z,52.08
2018-04-27T05:47:47.984Z,52.23
2018-04-27T05:48:47.895Z,52.13
2018-04-27T05:49:47.956Z,52.11
2018-04-27T05:50:48.014Z,52.22
2018-04-27T05:51:47.804Z,52.16
2018-04-27T05:52:48.224Z,52.14
2018-04-27T05:53:48.091Z,52.19
2018-04-27T05:54:47.988Z,52.16
2018-04-27T05:55:47.885Z,52.06
2018-04-27T05:56:47.870Z,52.17
2018-04-27T05:57:47.836Z,52.07
2018-04-27T05:58:47.939Z,52.06
2018-04-27T05:59:47.979Z,52.18
2018-04-27T06:00:47.972Z,52.19
2018-04-27T06:01:48.073Z,52.05
2018-04-27T06:02:47.933Z,52.17
2018-04-27T06:03:47.967Z,52.07
2018-04-27T06:04:47.899Z,52.04
2018-04-27T06:05:47.923Z,52.19
2018-04-27T06:06:48.037Z,52.17
2018-04-27T06:07:48.000Z,52.08
2018-04-27T06:08:48.157Z,52.14
2018-04-27T06:09:47.980Z,52.08
2018-04-27T06:10:48.017Z,52.07
2018-04-27T06:11:48.061Z,52.14
2018-04-27T06:12:48.062Z,52.04
2018-04-27T06:13:47.935Z,52.08
2018-04-27T06:14:47.926Z,52.16
2018-04-27T06:15:47.894Z,52.06
2018-04-27T06:16:47.830Z,52.06
2018-04-27T06:17:47.871Z,52.11
2018-04-27T06:18:47.994Z,52.04
2018-04-27T06:19:47.910Z,52.06
2018-04-27T06:20:47.923Z,52.11
2018-04-27T06:21:47.839Z,52.07
2018-04-27T06:22:47.943Z,52.01
2018-04-27T06:23:48.088Z,52.18
2018-04-27T06:24:48.030Z,52.05
2018-04-27T06:25:49.016Z,52.02
2018-04-27T06:26:47.977Z,52.08
2018-04-27T06:27:47.978Z,51.97
2018-04-27T06:28:48.208Z,52.01
2018-04-27T06:29:47.834Z,52.09
2018-04-27T06:30:48.102Z,51.97
2018-04-27T06:31:48.486Z,52
2018-04-27T06:32:48.019Z,52.1
2018-04-27T06:33:47.865Z,52.12
2018-04-27T06:34:47.955Z,52.05
2018-04-27T06:35:47.901Z,52.05
2018-04-27T06:36:47.961Z,52.01
2018-04-27T06:37:47.949Z,52.04
2018-04-27T06:38:47.943Z,52.07
2018-04-27T06:39:47.862Z,51.96
2018-04-27T06:40:47.834Z,51.95
2018-04-27T06:41:47.941Z,52.07
2018-04-27T06:42:47.790Z,52.01
2018-04-27T06:43:48.088Z,52.01
2018-04-27T06:44:48.083Z,52.05
2018-04-27T06:45:48.243Z,52.04
2018-04-27T06:46:50.511Z,51.98
2018-04-27T06:47:48.146Z,52.09
2018-04-27T06:48:48.710Z,52.05
2018-04-27T06:49:47.973Z,51.97
2018-04-27T06:50:48.093Z,52.12
2018-04-27T06:51:47.815Z,52.05
2018-04-27T06:52:47.924Z,52.08
2018-04-27T06:53:48.265Z,52.07
2018-04-27T06:54:47.987Z,52.08
2018-04-27T06:55:48.131Z,51.99
2018-04-27T06:56:47.901Z,52.12
2018-04-27T06:57:48.082Z,51.97
2018-04-27T06:58:47.957Z,51.96
2018-04-27T06:59:47.987Z,52.07
2018-04-27T07:00:47.903Z,52
2018-04-27T07:01:48.322Z,51.98
2018-04-27T07:02:48.121Z,52.11
2018-04-27T07:03:48.459Z,52.04
2018-04-27T07:04:48.007Z,52.04
2018-04-27T07:05:47.817Z,52.07
2018-04-27T07:06:47.852Z,52.01
2018-04-27T07:07:47.887Z,52.02
2018-04-27T07:08:48.028Z,52.1
2018-04-27T07:09:48.032Z,51.95
2018-04-27T07:10:48.044Z,52.01
2018-04-27T07:11:48.006Z,52.07
2018-04-27T07:12:47.978Z,51.94
2018-04-27T07:13:48.112Z,52.05
2018-04-27T07:14:47.962Z,52.07
2018-04-27T07:15:47.939Z,52.02
2018-04-27T07:16:48.385Z,52.01
2018-04-27T07:17:48.356Z,52.06
2018-04-27T07:18:48.160Z,51.99
2018-04-27T07:19:47.903Z,51.92
2018-04-27T07:20:47.953Z,52.07
2018-04-27T07:21:48.052Z,51.98
2018-04-27T07:22:48.661Z,51.98
2018-04-27T07:23:47.934Z,52.07
2018-04-27T07:24:47.838Z,52.02
2018-04-27T07:25:48.307Z,51.97
2018-04-27T07:26:47.794Z,52.02
2018-04-27T07:27:48.077Z,51.91
2018-04-27T07:28:47.943Z,51.94
2018-04-27T07:29:47.850Z,52.04
2018-04-27T07:30:47.798Z,51.94
2018-04-27T07:31:47.929Z,51.97
2018-04-27T07:32:47.844Z,52.04
2018-04-27T07:33:47.967Z,51.96
2018-04-27T07:34:47.839Z,51.94
2018-04-27T07:35:48.028Z,52.05
2018-04-27T07:36:47.990Z,51.96
2018-04-27T07:37:47.963Z,51.97
2018-04-27T07:38:47.977Z,52.04
2018-04-27T07:39:48.075Z,51.98
2018-04-27T07:40:48.062Z,51.93
2018-04-27T07:41:47.887Z,52.05
2018-04-27T07:42:47.859Z,51.97
2018-04-27T07:43:49.865Z,51.99
2018-04-27T07:44:48.012Z,52.05
2018-04-27T07:45:47.898Z,51.98
2018-04-27T07:46:48.062Z,51.96
2018-04-27T07:47:47.992Z,52.04
2018-04-27T07:48:47.984Z,51.97
2018-04-27T07:49:48.008Z,51.96
2018-04-27T07:50:48.003Z,52.04
2018-04-27T07:51:47.847Z,51.99
2018-04-27T07:52:47.920Z,51.99
2018-04-27T07:53:47.896Z,52.07
2018-04-27T07:54:48.060Z,51.98
2018-04-27T07:55:48.018Z,51.99
2018-04-27T07:56:47.829Z,52.08
2018-04-27T07:57:48.196Z,52.02
2018-04-27T07:58:47.943Z,52.01
2018-04-27T07:59:47.910Z,52.09
2018-04-27T08:00:47.993Z,52.02
2018-04-27T08:01:47.960Z,52.01
2018-04-27T08:02:48.177Z,52.09
2018-04-27T08:03:48.123Z,51.99
2018-04-27T08:04:47.873Z,51.94
2018-04-27T08:05:47.969Z,52.07
2018-04-27T08:06:48.124Z,52.04
2018-04-27T08:07:47.950Z,51.99
2018-04-27T08:08:48.815Z,52.11
2018-04-27T08:09:47.897Z,52.07
2018-04-27T08:10:48.125Z,51.96
2018-04-27T08:11:47.926Z,52.04
2018-04-27T08:12:47.974Z,51.96
2018-04-27T08:13:47.929Z,52.01
2018-04-27T08:14:48.046Z,52.1
2018-04-27T08:15:47.929Z,52.07
2018-04-27T08:16:47.911Z,52.04
2018-04-27T08:17:48.084Z,52.11
2018-04-27T08:18:48.179Z,52.04
2018-04-27T08:19:47.936Z,52.06
2018-04-27T08:20:48.106Z,52.12
2018-04-27T08:21:48.116Z,52.07
2018-04-27T08:22:48.133Z,52.07
2018-04-27T08:23:48.119Z,52.11
2018-04-27T08:24:48.085Z,52.07
2018-04-27T08:25:47.891Z,52.06
2018-04-27T08:26:48.057Z,52.1
2018-04-27T08:27:47.851Z,52.06
2018-04-27T08:28:48.073Z,52.06
2018-04-27T08:29:48.035Z,52.14
2018-04-27T08:30:48.120Z,52.07
2018-04-27T08:31:47.962Z,52.02
2018-04-27T08:32:48.096Z,52.11
2018-04-27T08:33:47.997Z,52.16
2018-04-27T08:34:47.975Z,52.44
2018-04-27T08:35:48.039Z,51.67
2018-04-27T08:36:47.956Z,51.58
2018-04-27T08:37:47.957Z,51.78
2018-04-27T08:38:50.419Z,51.87
2018-04-27T08:39:47.896Z,51.83
2018-04-27T08:40:48.096Z,51.85
2018-04-27T08:41:47.939Z,51.74
2018-04-27T08:42:47.851Z,51.69
2018-04-27T08:43:48.689Z,51.65
2018-04-27T08:44:47.868Z,51.67
2018-04-27T08:45:47.832Z,51.68
2018-04-27T08:46:47.880Z,51.68
2018-04-27T08:47:48.732Z,51.66
2018-04-27T08:48:48.085Z,51.55
2018-04-27T08:49:48.036Z,51.65
2018-04-27T08:50:47.903Z,51.64
2018-04-27T08:51:47.920Z,51.64
2018-04-27T08:52:48.052Z,51.66
2018-04-27T08:53:47.861Z,51.65
2018-04-27T08:54:47.829Z,51.58
2018-04-27T08:55:47.805Z,51.66
2018-04-27T08:56:48.081Z,51.63
2018-04-27T08:57:47.954Z,51.62
2018-04-27T08:58:47.953Z,51.61
2018-04-27T08:59:47.968Z,51.65
2018-04-27T09:00:48.132Z,51.62
2018-04-27T09:01:47.877Z,51.65
2018-04-27T09:02:48.727Z,51.67
2018-04-27T09:03:47.936Z,51.68
2018-04-27T09:04:48.070Z,51.69
2018-04-27T09:05:47.958Z,51.72
2018-04-27T09:06:47.955Z,51.66
2018-04-27T09:07:47.900Z,51.65
2018-04-27T09:08:48.027Z,51.69
2018-04-27T09:09:47.894Z,51.67
2018-04-27T09:10:47.856Z,51.66
2018-04-27T09:11:48.137Z,51.66
2018-04-27T09:12:47.852Z,51.58
2018-04-27T09:13:47.907Z,51.66
2018-04-27T09:14:48.085Z,51.71
2018-04-27T09:15:48.094Z,51.72
2018-04-27T09:16:48.044Z,51.7
2018-04-27T09:17:47.918Z,51.7
2018-04-27T09:18:47.923Z,51.71
2018-04-27T09:19:47.991Z,51.77
2018-04-27T09:20:48.173Z,51.73
2018-04-27T09:21:47.808Z,51.71
2018-04-27T09:22:47.884Z,51.67
2018-04-27T09:23:47.968Z,51.19
2018-04-27T09:24:47.903Z,49.32
2018-04-27T09:25:47.943Z,48.48
2018-04-27T09:26:48.292Z,47.35
2018-04-27T09:27:48.117Z,47.63
2018-04-27T09:28:47.966Z,46.57
2018-04-27T09:29:48.144Z,47.47
2018-04-27T09:30:47.843Z,46.41
2018-04-27T09:31:47.884Z,46.81
2018-04-27T09:32:48.080Z,46.38
2018-04-27T09:33:48.147Z,46.63
2018-04-27T09:34:48.054Z,46.48
2018-04-27T09:35:48.141Z,46.23
2018-04-27T09:36:47.955Z,46.36
2018-04-27T09:37:48.120Z,45.9
2018-04-27T09:38:48.088Z,45.3
2018-04-27T09:39:48.294Z,45.11
2018-04-27T09:40:48.042Z,43.98
2018-04-27T09:41:47.801Z,43.72
2018-04-27T09:42:48.033Z,43.25
2018-04-27T09:43:48.118Z,43.73
2018-04-27T09:44:48.588Z,44.09
2018-04-27T09:45:47.977Z,44.19
2018-04-27T09:46:48.059Z,44.78
2018-04-27T09:47:47.956Z,45.04
2018-04-27T09:48:48.171Z,45.06
2018-04-27T09:49:47.956Z,45.02
2018-04-27T09:50:48.824Z,45.49
2018-04-27T09:51:48.024Z,45.43
2018-04-27T09:52:48.090Z,45.86
2018-04-27T09:53:48.073Z,45.98
2018-04-27T09:54:49.381Z,46.1
2018-04-27T09:55:48.007Z,46.21
2018-04-27T09:56:48.026Z,46.24
2018-04-27T09:57:48.085Z,46.21
2018-04-27T09:58:50.681Z,46.22
2018-04-27T09:59:48.002Z,46.55
2018-04-27T10:00:47.990Z,46.55
2018-04-27T10:01:48.072Z,46.69
2018-04-27T10:02:47.906Z,46.98
2018-04-27T10:03:48.020Z,46.97
2018-04-27T10:04:47.925Z,47.05
2018-04-27T10:05:48.987Z,47.23
2018-04-27T10:06:47.963Z,47.23
2018-04-27T10:07:48.014Z,47.12
2018-04-27T10:08:48.184Z,47.46
2018-04-27T10:09:50.614Z,47.38
2018-04-27T10:10:47.967Z,47.34
2018-04-27T10:11:48.117Z,47.52
2018-04-27T10:12:47.973Z,47.45
2018-04-27T10:13:47.948Z,47.5
2018-04-27T10:14:47.901Z,47.76
2018-04-27T10:15:47.988Z,47.77
2018-04-27T10:16:47.967Z,47.69
2018-04-27T10:17:47.841Z,48.1
2018-04-27T10:18:48.040Z,47.92
2018-04-27T10:19:48.052Z,48.29
2018-04-27T10:20:47.927Z,48.33
2018-04-27T10:21:47.989Z,48.38
2018-04-27T10:22:47.859Z,48.27
2018-04-27T10:23:47.959Z,48.57
2018-04-27T10:24:48.089Z,48.47
2018-04-27T10:25:48.061Z,48.52
2018-04-27T10:26:48.081Z,48.65
2018-04-27T10:27:47.937Z,48.48
2018-04-27T10:28:47.965Z,48.62
2018-04-27T10:29:47.976Z,48.72
2018-04-27T10:30:48.282Z,48.77
2018-04-27T10:31:47.895Z,48.87
2018-04-27T10:32:47.925Z,48.83
2018-04-27T10:33:48.032Z,48.89
2018-04-27T10:34:48.022Z,65.78
2018-04-27T10:35:48.348Z,48.44
2018-04-27T10:36:48.333Z,48.53
2018-04-27T10:37:48.175Z,48.66
2018-04-27T10:38:47.776Z,49.03
2018-04-27T10:39:48.307Z,49.18
2018-04-27T10:40:48.311Z,49.3
2018-04-27T10:41:47.854Z,49.37
2018-04-27T10:42:47.796Z,49.43
2018-04-27T10:43:47.883Z,49.36
2018-04-27T10:44:48.749Z,49.47
2018-04-27T10:45:47.886Z,49.54
2018-04-27T10:46:47.986Z,49.72
2018-04-27T10:47:48.095Z,49.88
2018-04-27T10:48:47.949Z,49.88
2018-04-27T10:49:48.090Z,49.96
2018-04-27T10:50:48.105Z,50.01
2018-04-27T10:51:48.049Z,49.88
2018-04-27T10:52:47.915Z,49.93
2018-04-27T10:53:47.951Z,49.92
2018-04-27T10:54:48.014Z,49.97
2018-04-27T10:55:48.104Z,49.97
2018-04-27T10:56:48.028Z,50
2018-04-27T10:57:47.968Z,50.05
2018-04-27T10:58:47.905Z,50.12
2018-04-27T10:59:48.047Z,50.06
2018-04-27T11:00:47.974Z,50.18
2018-04-27T11:01:47.791Z,50.27
2018-04-27T11:02:47.819Z,50.27
2018-04-27T11:03:47.928Z,50.34
2018-04-27T11:04:48.134Z,50.26
2018-04-27T11:05:47.954Z,50.33
2018-04-27T11:06:47.936Z,50.3
2018-04-27T11:07:47.912Z,50.37
2018-04-27T11:08:48.061Z,50.35
2018-04-27T11:09:47.820Z,50.29
2018-04-27T11:10:48.026Z,50.32
2018-04-27T11:11:47.964Z,50.3
2018-04-27T11:12:48.061Z,50.31
2018-04-27T11:13:48.051Z,50.35
2018-04-27T11:14:47.975Z,50.34
2018-04-27T11:15:47.908Z,50.32
2018-04-27T11:16:49.364Z,50.31
2018-04-27T11:17:48.115Z,50.31
2018-04-27T11:18:47.929Z,50.33
2018-04-27T11:19:47.977Z,50.28
2018-04-27T11:20:47.879Z,50.29
2018-04-27T11:21:47.795Z,50.4
2018-04-27T11:22:47.903Z,50.37
2018-04-27T11:23:47.937Z,50.44
2018-04-27T11:24:47.918Z,50.38
2018-04-27T11:25:48.125Z,50.39
2018-04-27T11:26:47.998Z,50.48
2018-04-27T11:27:47.850Z,50.52
2018-04-27T11:28:48.791Z,50.51
2018-04-27T11:29:47.967Z,50.5
2018-04-27T11:30:48.054Z,50.53
2018-04-27T11:31:47.979Z,50.57
2018-04-27T11:32:47.923Z,50.56
2018-04-27T11:33:47.890Z,50.55
2018-04-27T11:34:48.086Z,50.48
2018-04-27T11:35:47.777Z,50.53
2018-04-27T11:36:47.972Z,50.56
2018-04-27T11:37:47.851Z,50.69
2018-04-27T11:38:47.887Z,50.62
2018-04-27T11:39:47.810Z,50.71
2018-04-27T11:40:48.025Z,50.63
2018-04-27T11:41:48.079Z,50.62
2018-04-27T11:42:47.961Z,50.66
2018-04-27T11:43:48.041Z,50.7
2018-04-27T11:44:48.002Z,50.75
2018-04-27T11:45:47.881Z,50.74
2018-04-27T11:46:47.973Z,50.68
2018-04-27T11:47:48.583Z,50.7
2018-04-27T11:48:47.948Z,50.68
2018-04-27T11:49:47.891Z,50.75
2018-04-27T11:50:48.002Z,50.73
2018-04-27T11:51:48.118Z,50.7
2018-04-27T11:52:48.025Z,50.65
2018-04-27T11:53:47.944Z,50.69
2018-04-27T11:54:47.890Z,50.63
2018-04-27T11:55:48.065Z,50.66
2018-04-27T11:56:47.948Z,50.43
2018-04-27T11:57:47.934Z,50.53
2018-04-27T11:58:47.732Z,50.67
2018-04-27T11:59:48.045Z,50.65
2018-04-27T12:00:48.234Z,50.63
2018-04-27T12:01:49.013Z,50.6
2018-04-27T12:02:47.894Z,50.71
2018-04-27T12:03:48.226Z,50.69
2018-04-27T12:04:47.999Z,50.73
2018-04-27T12:05:47.972Z,50.74
2018-04-27T12:06:47.924Z,50.69
2018-04-27T12:07:47.878Z,50.73
2018-04-27T12:08:47.998Z,50.71
2018-04-27T12:09:48.021Z,50.7
2018-04-27T12:10:47.900Z,50.73
2018-04-27T12:11:50.590Z,50.68
2018-04-27T12:12:47.922Z,50.75
2018-04-27T12:13:47.897Z,50.71
2018-04-27T12:14:47.842Z,50.73
2018-04-27T12:15:47.996Z,50.74
2018-04-27T12:16:48.060Z,50.73
2018-04-27T12:17:47.828Z,50.7
2018-04-27T12:18:47.993Z,50.73
2018-04-27T12:19:47.892Z,50.69
2018-04-27T12:20:47.935Z,50.75
2018-04-27T12:21:47.769Z,50.69
2018-04-27T12:22:47.971Z,50.71
2018-04-27T12:23:47.925Z,50.73
2018-04-27T12:24:48.087Z,50.71
2018-04-27T12:25:47.818Z,50.77
2018-04-27T12:26:48.047Z,50.87
2018-04-27T12:27:47.813Z,50.91
2018-04-27T12:28:47.955Z,50.82
2018-04-27T12:29:48.743Z,50.83
2018-04-27T12:30:48.333Z,50.85
2018-04-27T12:31:49.822Z,50.83
2018-04-27T12:32:48.065Z,50.91
2018-04-27T12:33:47.902Z,50.88
2018-04-27T12:34:47.929Z,50.87
2018-04-27T12:35:47.970Z,50.89
2018-04-27T12:36:47.823Z,50.92
2018-04-27T12:37:47.982Z,50.94
2018-04-27T12:38:48.604Z,50.9
2018-04-27T12:39:47.912Z,50.87
2018-04-27T12:40:47.978Z,50.88
2018-04-27T12:41:47.955Z,50.93
2018-04-27T12:42:48.076Z,50.88
2018-04-27T12:43:47.735Z,50.95
2018-04-27T12:44:48.026Z,51.01
2018-04-27T12:45:47.912Z,50.97
2018-04-27T12:46:47.909Z,51.03
2018-04-27T12:47:48.055Z,51.05
2018-04-27T12:48:48.009Z,51.02
2018-04-27T12:49:47.991Z,50.97
2018-04-27T12:50:47.889Z,51.05
2018-04-27T12:51:47.861Z,51
2018-04-27T12:52:47.909Z,50.96
2018-04-27T12:53:47.969Z,51.05
2018-04-27T12:54:47.919Z,50.99
2018-04-27T12:55:47.864Z,50.97
2018-04-27T12:56:48.059Z,51.02
2018-04-27T12:57:48.072Z,51.01
2018-04-27T12:58:47.988Z,50.91
2018-04-27T12:59:48.018Z,51.04
2018-04-27T13:00:47.863Z,51.03
2018-04-27T13:01:47.909Z,51.02
2018-04-27T13:02:47.974Z,51.07
2018-04-27T13:03:47.844Z,51.04
2018-04-27T13:04:47.882Z,51.04
2018-04-27T13:05:48.119Z,51.07